createdAt,value
2022-09-17T00:00:31.159Z,53.98
2022-09-17T00:01:31.410Z,53.66
2022-09-17T00:02:31.172Z,53.82
2022-09-17T00:03:31.125Z,53.33
2022-09-17T00:04:31.124Z,53.33
2022-09-17T00:05:31.187Z,53.17
2022-09-17T00:06:31.104Z,36.74
2022-09-17T00:07:31.118Z,38.83
2022-09-17T00:08:31.078Z,38.67
2022-09-17T00:09:31.076Z,40.61
2022-09-17T00:10:31.122Z,38.99
2022-09-17T00:11:31.065Z,40.44
2022-09-17T00:12:31.112Z,40.44
2022-09-17T00:13:31.046Z,41.41
2022-09-17T00:14:31.043Z,39.96
2022-09-17T00:15:31.034Z,39.96
2022-09-17T00:16:31.103Z,43.34
2022-09-17T00:17:31.058Z,42.54
2022-09-17T00:18:31.196Z,40.77
2022-09-17T00:19:30.997Z,40.77
2022-09-17T00:20:31.003Z,41.89
2022-09-17T00:21:31.071Z,42.06
2022-09-17T00:22:31.009Z,44.47
2022-09-17T00:23:30.971Z,41.41
2022-09-17T00:24:30.971Z,39.48
2022-09-17T00:25:30.961Z,42.06
2022-09-17T00:26:30.950Z,41.57
2022-09-17T00:27:30.980Z,40.77
2022-09-17T00:28:30.935Z,41.09
2022-09-17T00:29:30.940Z,42.06
2022-09-17T00:30:30.924Z,42.54
2022-09-17T00:31:30.972Z,42.38
2022-09-17T00:32:31.010Z,44.31
2022-09-17T00:33:30.933Z,44.63
2022-09-17T00:34:30.889Z,44.31
2022-09-17T00:35:30.879Z,45.12
2022-09-17T00:36:30.877Z,45.76
2022-09-17T00:37:30.978Z,43.67
2022-09-17T00:38:30.858Z,43.83
2022-09-17T00:39:30.848Z,44.96
2022-09-17T00:40:30.902Z,43.83
2022-09-17T00:41:30.843Z,43.02
2022-09-17T00:42:30.855Z,43.51
2022-09-17T00:43:30.837Z,43.51
2022-09-17T00:44:30.900Z,42.86
2022-09-17T00:45:30.807Z,41.73
2022-09-17T00:46:30.858Z,41.57
2022-09-17T00:47:30.830Z,42.06
2022-09-17T00:48:30.789Z,42.86
2022-09-17T00:49:30.788Z,40.61
2022-09-17T00:50:30.773Z,40.61
2022-09-17T00:51:30.774Z,39.80
2022-09-17T00:52:30.786Z,39.80
2022-09-17T00:53:30.868Z,40.44
2022-09-17T00:54:30.757Z,40.12
2022-09-17T00:55:30.741Z,39.80
2022-09-17T00:56:30.725Z,41.89
2022-09-17T00:57:30.747Z,40.12
2022-09-17T00:58:30.726Z,40.44
2022-09-17T00:59:30.704Z,41.57
2022-09-17T01:00:30.755Z,47.21
2022-09-17T01:01:30.693Z,39.64
2022-09-17T01:02:30.772Z,38.35
2022-09-17T01:03:30.686Z,41.57
2022-09-17T01:04:30.669Z,44.79
2022-09-17T01:05:30.658Z,40.61
2022-09-17T01:06:30.684Z,39.32
2022-09-17T01:07:30.730Z,39.48
2022-09-17T01:08:30.646Z,37.71
2022-09-17T01:09:30.711Z,38.35
2022-09-17T01:10:30.620Z,38.19
2022-09-17T01:11:30.613Z,39.16
2022-09-17T01:12:30.600Z,45.92
2022-09-17T01:13:30.635Z,43.34
2022-09-17T01:14:30.584Z,38.83
2022-09-17T01:15:30.589Z,41.73
2022-09-17T01:16:30.594Z,50.27
2022-09-17T01:17:30.609Z,51.72
2022-09-17T01:18:30.560Z,49.95
2022-09-17T01:19:30.550Z,53.66
2022-09-17T01:20:30.547Z,53.98
2022-09-17T01:21:30.542Z,53.66
2022-09-17T01:22:30.561Z,53.33
2022-09-17T01:23:30.517Z,53.98
2022-09-17T01:24:30.511Z,54.30
2022-09-17T01:25:30.590Z,53.66
2022-09-17T01:26:30.507Z,53.50
2022-09-17T01:27:30.493Z,52.69
2022-09-17T01:28:30.503Z,52.69
2022-09-17T01:29:30.488Z,53.01
2022-09-17T01:30:30.465Z,53.82
2022-09-17T01:31:30.531Z,40.93
2022-09-17T01:32:30.456Z,38.35
2022-09-17T01:33:30.472Z,36.58
2022-09-17T01:34:30.436Z,37.71
2022-09-17T01:35:31.088Z,38.35
2022-09-17T01:36:30.440Z,39.96
2022-09-17T01:37:30.895Z,40.77
2022-09-17T01:38:31.444Z,41.57
2022-09-17T01:39:30.422Z,42.70
2022-09-17T01:40:30.453Z,40.77
2022-09-17T01:41:30.497Z,40.28
2022-09-17T01:42:30.388Z,40.77
2022-09-17T01:43:30.393Z,41.25
2022-09-17T01:44:30.362Z,40.44
2022-09-17T01:45:30.360Z,39.64
2022-09-17T01:46:30.368Z,46.08
2022-09-17T01:47:30.347Z,39.80
2022-09-17T01:48:30.363Z,39.96
2022-09-17T01:49:30.329Z,40.28
2022-09-17T01:50:30.343Z,39.80
2022-09-17T01:51:30.325Z,38.19
2022-09-17T01:52:31.283Z,38.03
2022-09-17T01:53:30.307Z,38.83
2022-09-17T01:54:30.289Z,39.48
2022-09-17T01:55:30.291Z,38.03
2022-09-17T01:56:30.278Z,38.19
2022-09-17T01:57:30.368Z,38.03
2022-09-17T01:58:30.294Z,38.99
2022-09-17T01:59:30.257Z,36.90
2022-09-17T02:00:30.253Z,36.90
2022-09-17T02:01:30.257Z,37.22
2022-09-17T02:02:30.253Z,37.87
2022-09-17T02:03:30.476Z,38.67
2022-09-17T02:04:31.734Z,37.06
2022-09-17T02:05:30.238Z,37.22
2022-09-17T02:06:30.217Z,39.80
2022-09-17T02:07:30.206Z,45.60
2022-09-17T02:08:30.216Z,38.99
2022-09-17T02:09:30.183Z,38.83
2022-09-17T02:10:30.205Z,39.16
2022-09-17T02:11:30.176Z,38.99
2022-09-17T02:12:30.169Z,38.35
2022-09-17T02:13:30.261Z,39.32
2022-09-17T02:14:30.150Z,39.48
2022-09-17T02:15:30.141Z,40.93
2022-09-17T02:16:30.220Z,40.77
2022-09-17T02:17:30.126Z,39.80
2022-09-17T02:18:30.152Z,36.58
2022-09-17T02:19:30.117Z,36.25
2022-09-17T02:20:30.106Z,44.15
2022-09-17T02:21:30.094Z,46.41
2022-09-17T02:22:30.095Z,37.71
2022-09-17T02:23:30.111Z,45.60
2022-09-17T02:24:30.073Z,46.08
2022-09-17T02:25:30.067Z,39.64
2022-09-17T02:26:30.052Z,38.03
2022-09-17T02:27:30.760Z,39.64
2022-09-17T02:28:30.080Z,47.53
2022-09-17T02:29:30.110Z,37.54
2022-09-17T02:30:30.041Z,38.67
2022-09-17T02:31:30.108Z,45.76
2022-09-17T02:32:30.015Z,45.28
2022-09-17T02:33:30.032Z,36.74
2022-09-17T02:34:29.996Z,37.38
2022-09-17T02:35:29.996Z,39.32
2022-09-17T02:36:29.977Z,37.71
2022-09-17T02:37:29.973Z,37.87
2022-09-17T02:38:30.347Z,44.15
2022-09-17T02:39:30.037Z,42.86
2022-09-17T02:40:29.986Z,47.05
2022-09-17T02:41:29.949Z,38.35
2022-09-17T02:42:29.933Z,38.35
2022-09-17T02:43:29.950Z,37.87
2022-09-17T02:44:29.917Z,43.34
2022-09-17T02:45:29.988Z,37.22
2022-09-17T02:46:29.967Z,38.51
2022-09-17T02:47:29.897Z,46.25
2022-09-17T02:48:29.918Z,43.18
2022-09-17T02:49:29.878Z,36.58
2022-09-17T02:50:29.879Z,36.58
2022-09-17T02:51:29.870Z,38.19
2022-09-17T02:52:29.862Z,38.19
2022-09-17T02:53:29.902Z,46.73
2022-09-17T02:54:29.843Z,48.66
2022-09-17T02:55:29.841Z,50.76
2022-09-17T02:56:29.832Z,51.08
2022-09-17T02:57:29.824Z,53.82
2022-09-17T02:58:29.855Z,53.82
2022-09-17T02:59:29.804Z,53.98
2022-09-17T03:00:29.837Z,53.50
2022-09-17T03:01:29.872Z,54.30
2022-09-17T03:02:29.829Z,53.01
2022-09-17T03:03:29.801Z,42.06
2022-09-17T03:04:29.769Z,37.87
2022-09-17T03:05:29.774Z,38.35
2022-09-17T03:06:29.759Z,39.32
2022-09-17T03:07:29.742Z,38.19
2022-09-17T03:08:29.769Z,38.19
2022-09-17T03:09:29.733Z,38.19
2022-09-17T03:10:29.725Z,39.16
2022-09-17T03:11:29.722Z,40.12
2022-09-17T03:12:29.720Z,38.35
2022-09-17T03:13:29.725Z,38.51
2022-09-17T03:14:29.704Z,38.19
2022-09-17T03:15:29.694Z,41.09
2022-09-17T03:16:29.730Z,38.19
2022-09-17T03:17:29.749Z,38.67
2022-09-17T03:18:29.699Z,38.83
2022-09-17T03:19:29.661Z,39.32
2022-09-17T03:20:30.610Z,40.93
2022-09-17T03:21:29.642Z,43.99
2022-09-17T03:22:29.632Z,41.09
2022-09-17T03:23:29.743Z,40.77
2022-09-17T03:24:29.613Z,46.25
2022-09-17T03:25:29.605Z,41.09
2022-09-17T03:26:29.604Z,38.35
2022-09-17T03:27:29.604Z,37.06
2022-09-17T03:28:29.598Z,37.71
2022-09-17T03:29:30.572Z,43.18
2022-09-17T03:30:29.569Z,40.93
2022-09-17T03:31:29.634Z,38.83
2022-09-17T03:32:29.548Z,44.15
2022-09-17T03:33:29.665Z,39.80
2022-09-17T03:34:29.539Z,41.09
2022-09-17T03:35:29.533Z,42.22
2022-09-17T03:36:29.541Z,39.96
2022-09-17T03:38:02.228Z,37.71
2022-09-17T03:38:29.539Z,47.86
2022-09-17T03:39:29.501Z,39.80
2022-09-17T03:40:29.580Z,45.44
2022-09-17T03:41:29.488Z,51.24
2022-09-17T03:42:29.483Z,52.69
2022-09-17T03:43:29.490Z,51.56
2022-09-17T03:44:29.467Z,53.66
2022-09-17T03:45:29.460Z,53.66
2022-09-17T03:46:29.491Z,55.43
2022-09-17T03:47:29.445Z,53.98
2022-09-17T03:48:29.471Z,53.82
2022-09-17T03:49:29.518Z,53.98
2022-09-17T03:50:29.418Z,55.43
2022-09-17T03:51:29.409Z,46.57
2022-09-17T03:52:29.407Z,40.77
2022-09-17T03:53:29.434Z,41.25
2022-09-17T03:54:29.392Z,44.63
2022-09-17T03:55:29.386Z,40.44
2022-09-17T03:56:29.378Z,39.48
2022-09-17T03:57:29.368Z,38.83
2022-09-17T03:58:29.359Z,39.32
2022-09-17T03:59:29.381Z,39.80
2022-09-17T04:00:29.348Z,45.12
2022-09-17T04:01:29.416Z,41.25
2022-09-17T04:02:29.536Z,38.83
2022-09-17T04:03:29.354Z,39.16
2022-09-17T04:04:29.329Z,38.51
2022-09-17T04:05:29.390Z,46.08
2022-09-17T04:06:29.309Z,51.24
2022-09-17T04:07:29.301Z,51.24
2022-09-17T04:08:29.328Z,51.88
2022-09-17T04:09:30.024Z,52.21
2022-09-17T04:10:29.273Z,53.50
2022-09-17T04:11:29.272Z,53.33
2022-09-17T04:12:29.265Z,53.33
2022-09-17T04:13:29.290Z,53.66
2022-09-17T04:14:29.250Z,53.50
2022-09-17T04:15:29.241Z,53.01
2022-09-17T04:16:29.306Z,53.50
2022-09-17T04:17:29.230Z,53.17
2022-09-17T04:18:29.241Z,53.17
2022-09-17T04:19:29.206Z,47.86
2022-09-17T04:20:29.198Z,49.15
2022-09-17T04:21:29.264Z,42.06
2022-09-17T04:22:29.191Z,40.93
2022-09-17T04:23:29.208Z,39.16
2022-09-17T04:24:29.177Z,39.32
2022-09-17T04:25:29.172Z,41.57
2022-09-17T04:26:29.154Z,37.54
2022-09-17T04:27:29.146Z,37.71
2022-09-17T04:28:29.161Z,41.09
2022-09-17T04:29:29.129Z,43.18
2022-09-17T04:30:29.123Z,38.51
2022-09-17T04:31:29.156Z,40.44
2022-09-17T04:32:29.107Z,43.67
2022-09-17T04:33:29.128Z,38.67
2022-09-17T04:34:29.092Z,39.32
2022-09-17T04:35:29.084Z,38.51
2022-09-17T04:36:29.094Z,38.99
2022-09-17T04:37:29.146Z,38.03
2022-09-17T04:38:29.101Z,38.99
2022-09-17T04:39:29.064Z,41.25
2022-09-17T04:40:29.189Z,38.67
2022-09-17T04:41:29.041Z,43.18
2022-09-17T04:42:29.024Z,41.25
2022-09-17T04:43:29.019Z,42.22
2022-09-17T04:44:29.056Z,46.41
2022-09-17T04:45:29.001Z,43.18
2022-09-17T04:46:29.051Z,39.64
2022-09-17T04:47:28.993Z,39.64
2022-09-17T04:48:28.976Z,43.02
2022-09-17T04:49:29.005Z,44.63
2022-09-17T04:50:28.974Z,40.61
2022-09-17T04:51:28.957Z,44.47
2022-09-17T04:52:31.018Z,40.93
2022-09-17T04:53:30.052Z,41.09
2022-09-17T04:54:28.935Z,41.89
2022-09-17T04:55:28.924Z,45.92
2022-09-17T04:56:28.927Z,47.21
2022-09-17T04:57:28.911Z,42.54
2022-09-17T04:58:28.934Z,41.57
2022-09-17T04:59:28.892Z,40.12
2022-09-17T05:00:28.920Z,39.64
2022-09-17T05:01:28.897Z,39.96
2022-09-17T05:02:28.948Z,38.19
2022-09-17T05:03:28.901Z,40.44
2022-09-17T05:04:28.857Z,39.64
2022-09-17T05:05:28.846Z,39.96
2022-09-17T05:06:28.848Z,42.86
2022-09-17T05:07:28.841Z,40.77
2022-09-17T05:08:28.856Z,39.16
2022-09-17T05:09:28.932Z,43.18
2022-09-17T05:10:28.811Z,42.54
2022-09-17T05:11:28.801Z,39.96
2022-09-17T05:12:33.706Z,41.09
2022-09-17T05:13:30.822Z,49.79
2022-09-17T05:14:28.787Z,40.93
2022-09-17T05:15:28.777Z,39.80
2022-09-17T05:16:28.816Z,41.25
2022-09-17T05:17:28.759Z,43.02
2022-09-17T05:18:28.753Z,42.54
2022-09-17T05:19:28.770Z,46.73
2022-09-17T05:20:28.744Z,51.88
2022-09-17T05:21:28.736Z,51.88
2022-09-17T05:22:28.721Z,52.85
2022-09-17T05:23:28.771Z,54.46
2022-09-17T05:24:28.719Z,53.01
2022-09-17T05:25:28.776Z,53.82
2022-09-17T05:26:28.698Z,53.98
2022-09-17T05:27:28.691Z,54.14
2022-09-17T05:28:28.713Z,53.98
2022-09-17T05:29:28.660Z,53.98
2022-09-17T05:30:28.669Z,53.82
2022-09-17T05:31:28.791Z,53.98
2022-09-17T05:32:28.651Z,53.33
2022-09-17T05:33:28.679Z,53.17
2022-09-17T05:34:28.637Z,53.98
2022-09-17T05:35:28.621Z,53.01
2022-09-17T05:36:28.610Z,53.98
2022-09-17T05:37:28.624Z,37.71
2022-09-17T05:38:28.624Z,46.41
2022-09-17T05:39:28.597Z,44.63
2022-09-17T05:40:28.732Z,40.93
2022-09-17T05:41:28.658Z,41.73
2022-09-17T05:42:28.566Z,43.02
2022-09-17T05:43:28.584Z,41.57
2022-09-17T05:44:28.563Z,43.18
2022-09-17T05:45:28.549Z,42.06
2022-09-17T05:46:28.603Z,41.89
2022-09-17T05:47:28.542Z,42.70
2022-09-17T05:48:28.551Z,40.93
2022-09-17T05:49:28.518Z,44.47
2022-09-17T05:50:28.519Z,41.89
2022-09-17T05:51:28.581Z,46.08
2022-09-17T05:52:28.487Z,39.80
2022-09-17T05:53:28.517Z,40.28
2022-09-17T05:54:28.480Z,48.34
2022-09-17T05:55:28.467Z,44.96
2022-09-17T05:56:28.469Z,41.25
2022-09-17T05:57:28.538Z,40.44
2022-09-17T05:58:28.469Z,43.18
2022-09-17T05:59:28.446Z,42.54
2022-09-17T06:00:28.499Z,41.57
2022-09-17T06:01:28.505Z,39.32
2022-09-17T06:02:28.449Z,44.15
2022-09-17T06:03:28.429Z,39.96
2022-09-17T06:04:32.684Z,43.34
2022-09-17T06:05:30.385Z,39.96
2022-09-17T06:06:28.383Z,39.32
2022-09-17T06:07:28.391Z,39.64
2022-09-17T06:08:28.394Z,42.70
2022-09-17T06:09:29.179Z,38.83
2022-09-17T06:10:28.347Z,39.64
2022-09-17T06:11:28.347Z,39.48
2022-09-17T06:12:28.338Z,44.96
2022-09-17T06:13:28.429Z,44.96
2022-09-17T06:14:28.313Z,42.06
2022-09-17T06:15:28.308Z,43.83
2022-09-17T06:16:28.394Z,43.34
2022-09-17T06:17:28.298Z,44.79
2022-09-17T06:18:28.316Z,46.25
2022-09-17T06:19:28.284Z,47.70
2022-09-17T06:20:28.283Z,49.31
2022-09-17T06:21:28.268Z,42.86
2022-09-17T06:22:28.259Z,40.77
2022-09-17T06:23:28.333Z,41.73
2022-09-17T06:24:28.240Z,41.41
2022-09-17T06:25:28.226Z,44.96
2022-09-17T06:26:28.220Z,48.02
2022-09-17T06:27:28.212Z,46.08
2022-09-17T06:28:28.210Z,39.96
2022-09-17T06:29:28.319Z,48.82
2022-09-17T06:30:28.205Z,46.89
2022-09-17T06:31:28.246Z,50.11
2022-09-17T06:32:28.189Z,40.28
2022-09-17T06:33:28.170Z,43.67
2022-09-17T06:34:28.192Z,46.73
2022-09-17T06:35:28.157Z,47.05
2022-09-17T06:36:28.152Z,42.86
2022-09-17T06:37:28.151Z,41.57
2022-09-17T06:38:28.176Z,41.57
2022-09-17T06:39:28.118Z,46.73
2022-09-17T06:40:28.178Z,43.02
2022-09-17T06:41:28.134Z,47.53
2022-09-17T06:42:28.113Z,48.82
2022-09-17T06:43:28.128Z,49.31
2022-09-17T06:44:28.079Z,44.79
2022-09-17T06:45:28.157Z,42.86
2022-09-17T06:46:28.134Z,48.82
2022-09-17T06:47:28.064Z,42.86
2022-09-17T06:48:28.088Z,42.54
2022-09-17T06:49:28.041Z,45.28
2022-09-17T06:50:28.040Z,48.02
2022-09-17T06:51:28.041Z,43.02
2022-09-17T06:52:28.031Z,45.92
2022-09-17T06:53:28.015Z,45.28
2022-09-17T06:54:28.042Z,42.22
2022-09-17T06:55:28.002Z,44.15
2022-09-17T06:56:28.002Z,41.89
2022-09-17T06:57:27.995Z,44.47
2022-09-17T06:58:27.980Z,44.79
2022-09-17T06:59:27.999Z,43.02
2022-09-17T07:00:27.954Z,41.41
2022-09-17T07:01:28.069Z,44.79
2022-09-17T07:02:28.020Z,42.70
2022-09-17T07:03:27.945Z,45.92
2022-09-17T07:04:27.960Z,42.86
2022-09-17T07:05:27.923Z,47.21
2022-09-17T07:06:27.919Z,46.57
2022-09-17T07:07:27.916Z,47.53
2022-09-17T07:08:27.912Z,45.12
2022-09-17T07:09:27.937Z,42.54
2022-09-17T07:10:27.886Z,51.08
2022-09-17T07:11:27.919Z,49.31
2022-09-17T07:12:27.866Z,42.06
2022-09-17T07:13:27.856Z,50.76
2022-09-17T07:14:27.883Z,47.53
2022-09-17T07:15:27.846Z,49.15
2022-09-17T07:16:27.878Z,41.57
2022-09-17T07:17:27.905Z,41.25
2022-09-17T07:18:27.826Z,45.28
2022-09-17T07:19:27.843Z,44.47
2022-09-17T07:20:27.810Z,47.37
2022-09-17T07:21:27.801Z,47.05
2022-09-17T07:22:27.792Z,48.66
2022-09-17T07:23:27.787Z,49.15
2022-09-17T07:24:32.614Z,48.34
2022-09-17T07:25:29.761Z,42.54
2022-09-17T07:26:27.767Z,46.25
2022-09-17T07:27:27.871Z,46.57
2022-09-17T07:28:27.750Z,44.96
2022-09-17T07:29:27.808Z,48.34
2022-09-17T07:30:27.733Z,49.63
2022-09-17T07:31:27.754Z,47.86
2022-09-17T07:32:27.710Z,45.60
2022-09-17T07:33:27.852Z,42.86
2022-09-17T07:34:27.722Z,48.02
2022-09-17T07:35:27.686Z,51.08
2022-09-17T07:36:27.685Z,47.86
2022-09-17T07:37:27.676Z,44.96
2022-09-17T07:38:27.667Z,49.95
2022-09-17T07:39:27.683Z,45.60
2022-09-17T07:40:27.727Z,45.60
2022-09-17T07:41:27.669Z,50.76
2022-09-17T07:42:27.649Z,48.50
2022-09-17T07:43:27.628Z,45.44
2022-09-17T07:44:28.607Z,47.86
2022-09-17T07:45:27.615Z,48.18
2022-09-17T07:46:27.686Z,47.53
2022-09-17T07:47:28.596Z,47.05
2022-09-17T07:48:27.585Z,47.86
2022-09-17T07:49:27.686Z,47.21
2022-09-17T07:50:27.575Z,48.82
2022-09-17T07:51:27.557Z,45.92
2022-09-17T07:52:27.686Z,46.57
2022-09-17T07:53:27.564Z,49.95
2022-09-17T07:54:27.565Z,51.56
2022-09-17T07:55:27.535Z,49.15
2022-09-17T07:56:27.526Z,47.53
2022-09-17T07:57:27.532Z,46.25
2022-09-17T07:58:27.517Z,45.92
2022-09-17T07:59:27.541Z,51.40
2022-09-17T08:00:27.503Z,54.79
2022-09-17T08:01:27.562Z,53.98
2022-09-17T08:02:27.563Z,52.85
2022-09-17T08:03:27.476Z,55.27
2022-09-17T08:04:27.493Z,43.34
2022-09-17T08:05:27.541Z,44.63
2022-09-17T08:06:27.456Z,48.66
2022-09-17T08:07:27.442Z,47.53
2022-09-17T08:08:27.437Z,42.70
2022-09-17T08:09:27.463Z,42.70
2022-09-17T08:10:27.423Z,41.41
2022-09-17T08:11:51.659Z,46.73
2022-09-17T08:12:29.416Z,43.18
2022-09-17T08:13:27.404Z,42.22
2022-09-17T08:14:29.904Z,41.57
2022-09-17T08:15:28.383Z,47.21
2022-09-17T08:16:27.409Z,42.86
2022-09-17T08:17:27.367Z,44.15
2022-09-17T08:18:27.365Z,47.70
2022-09-17T08:19:27.360Z,50.92
2022-09-17T08:20:27.379Z,45.28
2022-09-17T08:21:27.413Z,44.63
2022-09-17T08:22:27.320Z,46.08
2022-09-17T08:23:28.346Z,47.37
2022-09-17T08:24:27.368Z,49.15
2022-09-17T08:25:27.306Z,42.38
2022-09-17T08:26:27.305Z,50.11
2022-09-17T08:27:27.298Z,51.24
2022-09-17T08:28:27.289Z,48.02
2022-09-17T08:29:27.281Z,46.25
2022-09-17T08:30:27.291Z,53.50
2022-09-17T08:31:27.358Z,43.99
2022-09-17T08:32:27.264Z,43.02
2022-09-17T08:33:27.251Z,43.34
2022-09-17T08:34:27.238Z,48.34
2022-09-17T08:35:27.282Z,47.53
2022-09-17T08:36:27.221Z,46.41
2022-09-17T08:37:27.329Z,46.25
2022-09-17T08:38:27.211Z,48.82
2022-09-17T08:39:27.202Z,49.63
2022-09-17T08:40:27.234Z,48.82
2022-09-17T08:41:27.187Z,52.85
2022-09-17T08:42:27.173Z,47.86
2022-09-17T08:43:27.177Z,48.98
2022-09-17T08:44:27.188Z,46.73
2022-09-17T08:45:27.186Z,49.95
2022-09-17T08:46:27.218Z,47.37
2022-09-17T08:47:27.133Z,49.47
2022-09-17T08:48:27.142Z,49.95
2022-09-17T08:49:27.123Z,47.70
2022-09-17T08:50:27.138Z,48.82
2022-09-17T08:51:27.104Z,50.76
2022-09-17T08:52:27.099Z,49.95
2022-09-17T08:53:27.160Z,47.21
2022-09-17T08:54:27.079Z,44.63
2022-09-17T08:55:27.102Z,45.28
2022-09-17T08:56:27.105Z,46.89
2022-09-17T08:57:27.060Z,44.31
2022-09-17T08:58:27.062Z,48.82
2022-09-17T08:59:27.055Z,43.34
2022-09-17T09:00:27.067Z,46.25
2022-09-17T09:01:27.074Z,48.34
2022-09-17T09:02:27.127Z,50.43
2022-09-17T09:03:27.016Z,44.63
2022-09-17T09:04:27.006Z,44.63
2022-09-17T09:05:27.016Z,46.25
2022-09-17T09:06:26.989Z,51.40
2022-09-17T09:07:26.992Z,48.98
2022-09-17T09:08:26.975Z,48.34
2022-09-17T09:09:27.048Z,50.76
2022-09-17T09:10:26.993Z,47.37
2022-09-17T09:11:26.955Z,47.86
2022-09-17T09:12:26.942Z,52.53
2022-09-17T09:13:26.942Z,49.47
2022-09-17T09:14:26.931Z,49.31
2022-09-17T09:15:26.939Z,46.08
2022-09-17T09:16:26.956Z,47.21
2022-09-17T09:17:26.904Z,51.08
2022-09-17T09:18:26.902Z,47.37
2022-09-17T09:19:26.905Z,50.92
2022-09-17T09:20:26.878Z,43.51
2022-09-17T09:21:26.904Z,47.70
2022-09-17T09:22:26.872Z,49.63
2022-09-17T09:23:26.865Z,52.53
2022-09-17T09:24:26.845Z,48.82
2022-09-17T09:25:26.958Z,48.34
2022-09-17T09:26:26.831Z,44.15
2022-09-17T09:27:26.828Z,42.54
2022-09-17T09:28:26.813Z,47.05
2022-09-17T09:29:26.816Z,51.72
2022-09-17T09:30:26.799Z,45.28
2022-09-17T09:31:27.187Z,48.82
2022-09-17T09:32:26.792Z,48.66
2022-09-17T09:33:26.784Z,50.92
2022-09-17T09:34:26.769Z,45.12
2022-09-17T09:35:26.759Z,48.82
2022-09-17T09:36:26.781Z,44.15
2022-09-17T09:37:26.754Z,46.89
2022-09-17T09:38:59.343Z,47.05
2022-09-17T09:39:26.732Z,53.33
2022-09-17T09:40:26.767Z,50.60
2022-09-17T09:41:26.824Z,46.41
2022-09-17T09:42:26.712Z,46.08
2022-09-17T09:43:36.628Z,45.60
2022-09-17T09:44:28.694Z,45.92
2022-09-17T09:45:26.685Z,50.43
2022-09-17T09:46:26.743Z,49.15
2022-09-17T09:47:26.668Z,48.34
2022-09-17T09:48:27.664Z,43.51
2022-09-17T09:49:26.678Z,45.92
2022-09-17T09:50:42.913Z,45.92
2022-09-17T09:51:28.661Z,42.38
2022-09-17T09:52:26.650Z,45.12
2022-09-17T09:53:26.627Z,47.70
2022-09-17T09:54:26.616Z,46.57
2022-09-17T09:55:27.076Z,43.51
2022-09-17T09:56:27.624Z,50.43
2022-09-17T09:57:26.681Z,49.79
2022-09-17T09:58:26.600Z,53.33
2022-09-17T09:59:26.633Z,44.79
2022-09-17T10:00:26.578Z,42.86
2022-09-17T10:01:26.623Z,52.05
2022-09-17T10:02:26.819Z,51.40
2022-09-17T10:03:26.549Z,49.47
2022-09-17T10:04:26.543Z,50.11
2022-09-17T10:05:26.529Z,50.92
2022-09-17T10:06:26.552Z,51.56
2022-09-17T10:07:26.517Z,50.60
2022-09-17T10:08:26.509Z,47.53
2022-09-17T10:09:26.538Z,50.27
2022-09-17T10:10:26.499Z,50.27
2022-09-17T10:11:26.516Z,47.86
2022-09-17T10:12:26.479Z,49.15
2022-09-17T10:13:26.554Z,51.40
2022-09-17T10:14:26.467Z,51.24
2022-09-17T10:15:26.456Z,51.40
2022-09-17T10:16:26.547Z,52.69
2022-09-17T10:17:26.441Z,53.50
2022-09-17T10:18:26.432Z,49.63
2022-09-17T10:19:26.455Z,46.41
2022-09-17T10:20:26.413Z,47.86
2022-09-17T10:21:26.438Z,53.01
2022-09-17T10:22:26.412Z,53.66
2022-09-17T10:23:26.395Z,50.92
2022-09-17T10:24:26.391Z,52.37
2022-09-17T10:25:26.381Z,52.05
2022-09-17T10:26:26.428Z,48.98
2022-09-17T10:27:26.368Z,50.27
2022-09-17T10:28:26.364Z,46.57
2022-09-17T10:29:26.531Z,50.27
2022-09-17T10:30:26.352Z,47.53
2022-09-17T10:31:26.433Z,45.92
2022-09-17T10:32:26.336Z,47.21
2022-09-17T10:33:26.344Z,45.60
2022-09-17T10:34:26.325Z,45.12
2022-09-17T10:35:26.311Z,49.95
2022-09-17T10:36:26.310Z,49.95
2022-09-17T10:37:26.329Z,47.21
2022-09-17T10:38:26.296Z,44.96
2022-09-17T10:39:26.342Z,47.53
2022-09-17T10:40:26.352Z,46.89
2022-09-17T10:41:26.273Z,46.73
2022-09-17T10:42:26.289Z,43.51
2022-09-17T10:43:26.244Z,48.82
2022-09-17T10:44:26.234Z,46.57
2022-09-17T10:45:26.312Z,46.89
2022-09-17T10:46:27.855Z,43.51
2022-09-17T10:47:27.246Z,44.79
2022-09-17T10:48:26.212Z,47.70
2022-09-17T10:49:26.205Z,49.47
2022-09-17T10:50:26.201Z,52.21
2022-09-17T10:51:26.189Z,50.76
2022-09-17T10:52:26.204Z,49.15
2022-09-17T10:53:26.169Z,49.63
2022-09-17T10:54:26.161Z,53.50
2022-09-17T10:55:26.159Z,50.43
2022-09-17T10:56:26.153Z,48.98
2022-09-17T10:57:26.164Z,49.95
2022-09-17T10:58:26.137Z,47.05
2022-09-17T10:59:26.131Z,48.02
2022-09-17T11:00:26.116Z,47.21
2022-09-17T11:01:26.233Z,51.08
2022-09-17T11:02:26.274Z,49.79
2022-09-17T11:03:26.089Z,50.27
2022-09-17T11:04:26.091Z,49.79
2022-09-17T11:05:26.084Z,49.63
2022-09-17T11:06:26.085Z,48.98
2022-09-17T11:07:26.091Z,43.51
2022-09-17T11:08:26.061Z,47.21
2022-09-17T11:09:26.052Z,45.12
2022-09-17T11:10:26.042Z,45.44
2022-09-17T11:11:26.035Z,53.01
2022-09-17T11:12:26.027Z,51.24
2022-09-17T11:13:26.049Z,49.63
2022-09-17T11:14:26.014Z,50.92
2022-09-17T11:15:26.000Z,47.05
2022-09-17T11:16:26.216Z,50.92
2022-09-17T11:17:26.063Z,46.73
2022-09-17T11:18:26.008Z,48.98
2022-09-17T11:19:26.018Z,49.63
2022-09-17T11:20:25.960Z,47.53
2022-09-17T11:21:25.948Z,49.31
2022-09-17T11:22:25.941Z,50.27
2022-09-17T11:23:25.962Z,46.41
2022-09-17T11:24:25.933Z,46.25
2022-09-17T11:25:25.927Z,48.98
2022-09-17T11:26:25.909Z,47.05
2022-09-17T11:27:25.901Z,42.06
2022-09-17T11:28:25.920Z,42.70
2022-09-17T11:29:25.898Z,48.34
2022-09-17T11:30:25.881Z,44.79
2022-09-17T11:31:25.897Z,48.82
2022-09-17T11:32:25.905Z,43.67
2022-09-17T11:33:25.954Z,47.05
2022-09-17T11:34:25.854Z,49.31
2022-09-17T11:35:25.844Z,47.05
2022-09-17T11:36:25.841Z,47.70
2022-09-17T11:37:25.864Z,45.60
2022-09-17T11:38:25.823Z,43.51
2022-09-17T11:39:25.816Z,45.28
2022-09-17T11:40:25.890Z,47.05
2022-09-17T11:41:25.799Z,48.34
2022-09-17T11:42:25.790Z,43.67
2022-09-17T11:43:25.843Z,45.60
2022-09-17T11:44:25.779Z,47.37
2022-09-17T11:45:25.768Z,45.60
2022-09-17T11:46:25.787Z,52.21
2022-09-17T11:47:25.749Z,50.11
2022-09-17T11:48:25.766Z,49.63
2022-09-17T11:49:25.730Z,51.08
2022-09-17T11:50:25.727Z,50.11
2022-09-17T11:51:25.725Z,47.70
2022-09-17T11:52:25.714Z,42.54
2022-09-17T11:53:25.729Z,45.92
2022-09-17T11:54:25.695Z,46.41
2022-09-17T11:55:25.681Z,47.37
2022-09-17T11:56:25.678Z,45.76
2022-09-17T11:57:25.665Z,48.18
2022-09-17T11:58:25.694Z,46.25
2022-09-17T11:59:25.656Z,53.50
2022-09-17T12:00:25.646Z,44.31
2022-09-17T12:01:25.636Z,46.57
2022-09-17T12:02:25.680Z,47.86
2022-09-17T12:03:25.685Z,50.11
2022-09-17T12:04:25.616Z,42.22
2022-09-17T12:05:25.701Z,45.12
2022-09-17T12:06:25.598Z,47.70
2022-09-17T12:07:25.591Z,51.24
2022-09-17T12:08:25.603Z,44.63
2022-09-17T12:09:25.575Z,49.15
2022-09-17T12:10:25.568Z,47.86
2022-09-17T12:11:25.583Z,47.21
2022-09-17T12:12:48.574Z,43.67
2022-09-17T12:13:27.576Z,48.50
2022-09-17T12:14:25.538Z,50.11
2022-09-17T12:15:25.533Z,47.05
2022-09-17T12:16:25.569Z,42.38
2022-09-17T12:17:25.521Z,47.86
2022-09-17T12:18:32.303Z,54.79
2022-09-17T12:19:27.503Z,55.43
2022-09-17T12:20:25.497Z,55.59
2022-09-17T12:21:25.577Z,56.24
2022-09-17T12:22:25.476Z,56.07
2022-09-17T12:23:25.502Z,50.76
2022-09-17T12:24:25.465Z,49.31
2022-09-17T12:25:25.462Z,49.31
2022-09-17T12:26:25.448Z,47.53
2022-09-17T12:27:25.441Z,54.14
2022-09-17T12:28:25.483Z,47.86
2022-09-17T12:29:25.426Z,46.89
2022-09-17T12:30:25.416Z,49.15
2022-09-17T12:31:25.440Z,47.53
2022-09-17T12:32:25.397Z,51.40
2022-09-17T12:33:25.438Z,49.79
2022-09-17T12:34:25.387Z,49.31
2022-09-17T12:35:36.471Z,50.92
2022-09-17T12:36:27.364Z,52.37
2022-09-17T12:37:25.442Z,45.12
2022-09-17T12:38:25.387Z,46.41
2022-09-17T12:39:25.351Z,51.40
2022-09-17T12:40:25.490Z,51.40
2022-09-17T12:41:25.328Z,47.70
2022-09-17T12:42:25.316Z,46.25
2022-09-17T12:43:25.345Z,44.96
2022-09-17T12:44:25.306Z,51.40
2022-09-17T12:45:25.297Z,45.60
2022-09-17T12:46:25.330Z,53.01
2022-09-17T12:47:25.284Z,46.41
2022-09-17T12:48:25.333Z,49.95
2022-09-17T12:49:25.297Z,50.11
2022-09-17T12:50:25.259Z,42.38
2022-09-17T12:51:25.252Z,48.02
2022-09-17T12:52:25.248Z,45.92